<?xml version="1.0" encoding="UTF-8" standalone="no" ?>
<gpx xmlns="http://www.topografix.com/GPX/1/1" xmlns:xsi="http://www.w3.org/2001/XMLSchema-instance" xsi:schemaLocation="http://www.topografix.com/GPX/1/1 http://www.topografix.com/GPX/1/1/gpx.xsd" version="1.1" creator="VisuGPX - https://www.visugpx.com">
  <metadata>
    <name>Course des remparts 12km</name>
    <desc><![CDATA[Courses des remparts 
12km 450D+

90% chemins et sentiers
10% Routes]]></desc>
  </metadata>
  <trk>
    <name><![CDATA[6981559-course des remparts]]></name>
    <trkseg>
      <trkpt lat="45.03372" lon="3.09491">
        <ele>885</ele>
        <time>2019-06-25T15:00:17Z</time>
      </trkpt>
      <trkpt lat="45.03358" lon="3.09489">
        <ele>885</ele>
        <time>2019-06-25T15:00:24Z</time>
      </trkpt>
      <trkpt lat="45.03297" lon="3.09463">
        <ele>878</ele>
        <time>2019-06-25T15:00:56Z</time>
      </trkpt>
      <trkpt lat="45.03292" lon="3.09456">
        <ele>878</ele>
        <time>2019-06-25T15:00:59Z</time>
      </trkpt>
      <trkpt lat="45.0328" lon="3.09447">
        <ele>876</ele>
        <time>2019-06-25T15:01:06Z</time>
      </trkpt>
      <trkpt lat="45.03264" lon="3.09392">
        <ele>877</ele>
        <time>2019-06-25T15:01:27Z</time>
      </trkpt>
      <trkpt lat="45.03265" lon="3.09376">
        <ele>878</ele>
        <time>2019-06-25T15:01:33Z</time>
      </trkpt>
      <trkpt lat="45.03258" lon="3.09367">
        <ele>877</ele>
        <time>2019-06-25T15:01:38Z</time>
      </trkpt>
      <trkpt lat="45.03262" lon="3.09337">
        <ele>878</ele>
        <time>2019-06-25T15:01:48Z</time>
      </trkpt>
      <trkpt lat="45.03259" lon="3.09317">
        <ele>877</ele>
        <time>2019-06-25T15:01:56Z</time>
      </trkpt>
      <trkpt lat="45.03266" lon="3.09279">
        <ele>877</ele>
        <time>2019-06-25T15:02:10Z</time>
      </trkpt>
      <trkpt lat="45.03275" lon="3.09254">
        <ele>878</ele>
        <time>2019-06-25T15:02:20Z</time>
      </trkpt>
      <trkpt lat="45.03278" lon="3.09235">
        <ele>878</ele>
        <time>2019-06-25T15:02:26Z</time>
      </trkpt>
      <trkpt lat="45.03277" lon="3.0922">
        <ele>877</ele>
        <time>2019-06-25T15:02:32Z</time>
      </trkpt>
      <trkpt lat="45.03289" lon="3.09201">
        <ele>879</ele>
        <time>2019-06-25T15:02:41Z</time>
      </trkpt>
      <trkpt lat="45.03297" lon="3.09197">
        <ele>880</ele>
        <time>2019-06-25T15:02:45Z</time>
      </trkpt>
      <trkpt lat="45.03314" lon="3.09164">
        <ele>882</ele>
        <time>2019-06-25T15:02:59Z</time>
      </trkpt>
      <trkpt lat="45.03318" lon="3.0914">
        <ele>882</ele>
        <time>2019-06-25T15:03:08Z</time>
      </trkpt>
      <trkpt lat="45.03298" lon="3.09055">
        <ele>879</ele>
        <time>2019-06-25T15:03:40Z</time>
      </trkpt>
      <trkpt lat="45.03301" lon="3.09038">
        <ele>879</ele>
        <time>2019-06-25T15:03:46Z</time>
      </trkpt>
      <trkpt lat="45.03298" lon="3.09019">
        <ele>879</ele>
        <time>2019-06-25T15:03:53Z</time>
      </trkpt>
      <trkpt lat="45.033" lon="3.08988">
        <ele>880</ele>
        <time>2019-06-25T15:04:04Z</time>
      </trkpt>
      <trkpt lat="45.03296" lon="3.08966">
        <ele>879</ele>
        <time>2019-06-25T15:04:12Z</time>
      </trkpt>
      <trkpt lat="45.03286" lon="3.08945">
        <ele>877</ele>
        <time>2019-06-25T15:04:21Z</time>
      </trkpt>
      <trkpt lat="45.03286" lon="3.08914">
        <ele>877</ele>
        <time>2019-06-25T15:04:32Z</time>
      </trkpt>
      <trkpt lat="45.03283" lon="3.0889">
        <ele>877</ele>
        <time>2019-06-25T15:04:41Z</time>
      </trkpt>
      <trkpt lat="45.03288" lon="3.08853">
        <ele>878</ele>
        <time>2019-06-25T15:04:54Z</time>
      </trkpt>
      <trkpt lat="45.03279" lon="3.08823">
        <ele>877</ele>
        <time>2019-06-25T15:05:05Z</time>
      </trkpt>
      <trkpt lat="45.03281" lon="3.08806">
        <ele>877</ele>
        <time>2019-06-25T15:05:11Z</time>
      </trkpt>
      <trkpt lat="45.03288" lon="3.088">
        <ele>878</ele>
        <time>2019-06-25T15:05:16Z</time>
      </trkpt>
      <trkpt lat="45.03302" lon="3.08698">
        <ele>878</ele>
        <time>2019-06-25T15:05:52Z</time>
      </trkpt>
      <trkpt lat="45.0331" lon="3.08595">
        <ele>880</ele>
        <time>2019-06-25T15:06:29Z</time>
      </trkpt>
      <trkpt lat="45.03314" lon="3.08561">
        <ele>881</ele>
        <time>2019-06-25T15:06:41Z</time>
      </trkpt>
      <trkpt lat="45.03324" lon="3.08517">
        <ele>884</ele>
        <time>2019-06-25T15:06:57Z</time>
      </trkpt>
      <trkpt lat="45.03325" lon="3.08484">
        <ele>885</ele>
        <time>2019-06-25T15:07:09Z</time>
      </trkpt>
      <trkpt lat="45.03336" lon="3.08408">
        <ele>887</ele>
        <time>2019-06-25T15:07:37Z</time>
      </trkpt>
      <trkpt lat="45.03343" lon="3.08315">
        <ele>889</ele>
        <time>2019-06-25T15:08:10Z</time>
      </trkpt>
      <trkpt lat="45.03342" lon="3.08301">
        <ele>889</ele>
        <time>2019-06-25T15:08:15Z</time>
      </trkpt>
      <trkpt lat="45.03333" lon="3.08297">
        <ele>888</ele>
        <time>2019-06-25T15:08:19Z</time>
      </trkpt>
      <trkpt lat="45.03314" lon="3.08296">
        <ele>884</ele>
        <time>2019-06-25T15:08:29Z</time>
      </trkpt>
      <trkpt lat="45.03304" lon="3.08285">
        <ele>882</ele>
        <time>2019-06-25T15:08:35Z</time>
      </trkpt>
      <trkpt lat="45.03303" lon="3.08213">
        <ele>881</ele>
        <time>2019-06-25T15:09:01Z</time>
      </trkpt>
      <trkpt lat="45.03314" lon="3.08119">
        <ele>881</ele>
        <time>2019-06-25T15:09:34Z</time>
      </trkpt>
      <trkpt lat="45.03314" lon="3.08096">
        <ele>880</ele>
        <time>2019-06-25T15:09:43Z</time>
      </trkpt>
      <trkpt lat="45.0331" lon="3.08091">
        <ele>878</ele>
        <time>2019-06-25T15:09:45Z</time>
      </trkpt>
      <trkpt lat="45.03284" lon="3.08085">
        <ele>872</ele>
        <time>2019-06-25T15:09:58Z</time>
      </trkpt>
      <trkpt lat="45.03272" lon="3.08077">
        <ele>868</ele>
        <time>2019-06-25T15:10:05Z</time>
      </trkpt>
      <trkpt lat="45.03261" lon="3.08062">
        <ele>864</ele>
        <time>2019-06-25T15:10:13Z</time>
      </trkpt>
      <trkpt lat="45.03264" lon="3.08046">
        <ele>864</ele>
        <time>2019-06-25T15:10:18Z</time>
      </trkpt>
      <trkpt lat="45.03272" lon="3.0804">
        <ele>866</ele>
        <time>2019-06-25T15:10:23Z</time>
      </trkpt>
      <trkpt lat="45.03293" lon="3.08001">
        <ele>868</ele>
        <time>2019-06-25T15:10:40Z</time>
      </trkpt>
      <trkpt lat="45.03291" lon="3.07998">
        <ele>868</ele>
        <time>2019-06-25T15:10:42Z</time>
      </trkpt>
      <trkpt lat="45.0328" lon="3.08">
        <ele>865</ele>
        <time>2019-06-25T15:10:47Z</time>
      </trkpt>
      <trkpt lat="45.03262" lon="3.08012">
        <ele>862</ele>
        <time>2019-06-25T15:10:57Z</time>
      </trkpt>
      <trkpt lat="45.03254" lon="3.08021">
        <ele>860</ele>
        <time>2019-06-25T15:11:02Z</time>
      </trkpt>
      <trkpt lat="45.03251" lon="3.08015">
        <ele>859</ele>
        <time>2019-06-25T15:11:05Z</time>
      </trkpt>
      <trkpt lat="45.03254" lon="3.08004">
        <ele>859</ele>
        <time>2019-06-25T15:11:09Z</time>
      </trkpt>
      <trkpt lat="45.03242" lon="3.08003">
        <ele>855</ele>
        <time>2019-06-25T15:11:15Z</time>
      </trkpt>
      <trkpt lat="45.03242" lon="3.07991">
        <ele>854</ele>
        <time>2019-06-25T15:11:19Z</time>
      </trkpt>
      <trkpt lat="45.03246" lon="3.0798">
        <ele>854</ele>
        <time>2019-06-25T15:11:24Z</time>
      </trkpt>
      <trkpt lat="45.0326" lon="3.07973">
        <ele>857</ele>
        <time>2019-06-25T15:11:31Z</time>
      </trkpt>
      <trkpt lat="45.03274" lon="3.07959">
        <ele>859</ele>
        <time>2019-06-25T15:11:40Z</time>
      </trkpt>
      <trkpt lat="45.03284" lon="3.07941">
        <ele>860</ele>
        <time>2019-06-25T15:11:48Z</time>
      </trkpt>
      <trkpt lat="45.03298" lon="3.07902">
        <ele>860</ele>
        <time>2019-06-25T15:12:03Z</time>
      </trkpt>
      <trkpt lat="45.03305" lon="3.07859">
        <ele>860</ele>
        <time>2019-06-25T15:12:19Z</time>
      </trkpt>
      <trkpt lat="45.03304" lon="3.07814">
        <ele>858</ele>
        <time>2019-06-25T15:12:35Z</time>
      </trkpt>
      <trkpt lat="45.03279" lon="3.07724">
        <ele>849</ele>
        <time>2019-06-25T15:13:09Z</time>
      </trkpt>
      <trkpt lat="45.0328" lon="3.07711">
        <ele>850</ele>
        <time>2019-06-25T15:13:14Z</time>
      </trkpt>
      <trkpt lat="45.03288" lon="3.07699">
        <ele>855</ele>
        <time>2019-06-25T15:13:20Z</time>
      </trkpt>
      <trkpt lat="45.03277" lon="3.07638">
        <ele>851</ele>
        <time>2019-06-25T15:13:42Z</time>
      </trkpt>
      <trkpt lat="45.03272" lon="3.07624">
        <ele>849</ele>
        <time>2019-06-25T15:13:47Z</time>
      </trkpt>
      <trkpt lat="45.03251" lon="3.07589">
        <ele>841</ele>
        <time>2019-06-25T15:14:04Z</time>
      </trkpt>
      <trkpt lat="45.0325" lon="3.07583">
        <ele>841</ele>
        <time>2019-06-25T15:14:06Z</time>
      </trkpt>
      <trkpt lat="45.0325" lon="3.07531">
        <ele>840</ele>
        <time>2019-06-25T15:14:24Z</time>
      </trkpt>
      <trkpt lat="45.03247" lon="3.07488">
        <ele>839</ele>
        <time>2019-06-25T15:14:40Z</time>
      </trkpt>
      <trkpt lat="45.03249" lon="3.0741">
        <ele>835</ele>
        <time>2019-06-25T15:15:07Z</time>
      </trkpt>
      <trkpt lat="45.03232" lon="3.07474">
        <ele>839</ele>
        <time>2019-06-25T15:15:31Z</time>
      </trkpt>
      <trkpt lat="45.03216" lon="3.07514">
        <ele>840</ele>
        <time>2019-06-25T15:15:48Z</time>
      </trkpt>
      <trkpt lat="45.03209" lon="3.07523">
        <ele>840</ele>
        <time>2019-06-25T15:15:52Z</time>
      </trkpt>
      <trkpt lat="45.03205" lon="3.07546">
        <ele>838</ele>
        <time>2019-06-25T15:16:01Z</time>
      </trkpt>
      <trkpt lat="45.03203" lon="3.07579">
        <ele>836</ele>
        <time>2019-06-25T15:16:12Z</time>
      </trkpt>
      <trkpt lat="45.03191" lon="3.07646">
        <ele>832</ele>
        <time>2019-06-25T15:16:37Z</time>
      </trkpt>
      <trkpt lat="45.0319" lon="3.07698">
        <ele>831</ele>
        <time>2019-06-25T15:16:55Z</time>
      </trkpt>
      <trkpt lat="45.03185" lon="3.0771">
        <ele>831</ele>
        <time>2019-06-25T15:17:00Z</time>
      </trkpt>
      <trkpt lat="45.03188" lon="3.0773">
        <ele>831</ele>
        <time>2019-06-25T15:17:07Z</time>
      </trkpt>
      <trkpt lat="45.03194" lon="3.07749">
        <ele>831</ele>
        <time>2019-06-25T15:17:15Z</time>
      </trkpt>
      <trkpt lat="45.032" lon="3.0781">
        <ele>829</ele>
        <time>2019-06-25T15:17:37Z</time>
      </trkpt>
      <trkpt lat="45.03176" lon="3.07851">
        <ele>824</ele>
        <time>2019-06-25T15:17:55Z</time>
      </trkpt>
      <trkpt lat="45.03162" lon="3.07862">
        <ele>822</ele>
        <time>2019-06-25T15:18:03Z</time>
      </trkpt>
      <trkpt lat="45.03161" lon="3.07877">
        <ele>822</ele>
        <time>2019-06-25T15:18:09Z</time>
      </trkpt>
      <trkpt lat="45.03156" lon="3.07894">
        <ele>822</ele>
        <time>2019-06-25T15:18:15Z</time>
      </trkpt>
      <trkpt lat="45.03138" lon="3.07925">
        <ele>821</ele>
        <time>2019-06-25T15:18:29Z</time>
      </trkpt>
      <trkpt lat="45.03134" lon="3.07948">
        <ele>822</ele>
        <time>2019-06-25T15:18:38Z</time>
      </trkpt>
      <trkpt lat="45.03131" lon="3.07953">
        <ele>822</ele>
        <time>2019-06-25T15:18:40Z</time>
      </trkpt>
      <trkpt lat="45.03125" lon="3.0794">
        <ele>821</ele>
        <time>2019-06-25T15:18:46Z</time>
      </trkpt>
      <trkpt lat="45.03109" lon="3.07917">
        <ele>819</ele>
        <time>2019-06-25T15:18:57Z</time>
      </trkpt>
      <trkpt lat="45.03089" lon="3.07894">
        <ele>820</ele>
        <time>2019-06-25T15:19:10Z</time>
      </trkpt>
      <trkpt lat="45.03077" lon="3.07899">
        <ele>820</ele>
        <time>2019-06-25T15:19:16Z</time>
      </trkpt>
      <trkpt lat="45.03062" lon="3.07901">
        <ele>821</ele>
        <time>2019-06-25T15:19:24Z</time>
      </trkpt>
      <trkpt lat="45.03044" lon="3.07895">
        <ele>823</ele>
        <time>2019-06-25T15:19:33Z</time>
      </trkpt>
      <trkpt lat="45.03028" lon="3.07893">
        <ele>824</ele>
        <time>2019-06-25T15:19:41Z</time>
      </trkpt>
      <trkpt lat="45.03018" lon="3.07887">
        <ele>824</ele>
        <time>2019-06-25T15:19:46Z</time>
      </trkpt>
      <trkpt lat="45.03007" lon="3.07887">
        <ele>825</ele>
        <time>2019-06-25T15:19:52Z</time>
      </trkpt>
      <trkpt lat="45.02984" lon="3.0789">
        <ele>826</ele>
        <time>2019-06-25T15:20:03Z</time>
      </trkpt>
      <trkpt lat="45.02968" lon="3.07898">
        <ele>826</ele>
        <time>2019-06-25T15:20:12Z</time>
      </trkpt>
      <trkpt lat="45.02918" lon="3.07931">
        <ele>830</ele>
        <time>2019-06-25T15:20:40Z</time>
      </trkpt>
      <trkpt lat="45.02896" lon="3.07956">
        <ele>833</ele>
        <time>2019-06-25T15:20:54Z</time>
      </trkpt>
      <trkpt lat="45.02841" lon="3.08003">
        <ele>838</ele>
        <time>2019-06-25T15:21:26Z</time>
      </trkpt>
      <trkpt lat="45.02769" lon="3.08047">
        <ele>843</ele>
        <time>2019-06-25T15:22:05Z</time>
      </trkpt>
      <trkpt lat="45.02763" lon="3.08056">
        <ele>845</ele>
        <time>2019-06-25T15:22:09Z</time>
      </trkpt>
      <trkpt lat="45.02759" lon="3.08068">
        <ele>847</ele>
        <time>2019-06-25T15:22:14Z</time>
      </trkpt>
      <trkpt lat="45.0276" lon="3.0809">
        <ele>851</ele>
        <time>2019-06-25T15:22:22Z</time>
      </trkpt>
      <trkpt lat="45.02752" lon="3.08128">
        <ele>856</ele>
        <time>2019-06-25T15:22:36Z</time>
      </trkpt>
      <trkpt lat="45.02735" lon="3.08149">
        <ele>860</ele>
        <time>2019-06-25T15:22:47Z</time>
      </trkpt>
      <trkpt lat="45.02712" lon="3.08163">
        <ele>863</ele>
        <time>2019-06-25T15:23:00Z</time>
      </trkpt>
      <trkpt lat="45.02674" lon="3.08173">
        <ele>866</ele>
        <time>2019-06-25T15:23:19Z</time>
      </trkpt>
      <trkpt lat="45.02663" lon="3.08179">
        <ele>867</ele>
        <time>2019-06-25T15:23:25Z</time>
      </trkpt>
      <trkpt lat="45.02628" lon="3.08208">
        <ele>869</ele>
        <time>2019-06-25T15:23:45Z</time>
      </trkpt>
      <trkpt lat="45.02579" lon="3.08235">
        <ele>873</ele>
        <time>2019-06-25T15:24:12Z</time>
      </trkpt>
      <trkpt lat="45.02557" lon="3.08253">
        <ele>876</ele>
        <time>2019-06-25T15:24:24Z</time>
      </trkpt>
      <trkpt lat="45.0254" lon="3.08261">
        <ele>878</ele>
        <time>2019-06-25T15:24:33Z</time>
      </trkpt>
      <trkpt lat="45.02517" lon="3.08286">
        <ele>881</ele>
        <time>2019-06-25T15:24:48Z</time>
      </trkpt>
      <trkpt lat="45.02498" lon="3.08297">
        <ele>883</ele>
        <time>2019-06-25T15:24:58Z</time>
      </trkpt>
      <trkpt lat="45.02489" lon="3.08307">
        <ele>885</ele>
        <time>2019-06-25T15:25:04Z</time>
      </trkpt>
      <trkpt lat="45.02477" lon="3.0833">
        <ele>886</ele>
        <time>2019-06-25T15:25:14Z</time>
      </trkpt>
      <trkpt lat="45.02482" lon="3.08359">
        <ele>885</ele>
        <time>2019-06-25T15:25:25Z</time>
      </trkpt>
      <trkpt lat="45.02493" lon="3.08365">
        <ele>884</ele>
        <time>2019-06-25T15:25:30Z</time>
      </trkpt>
      <trkpt lat="45.02548" lon="3.0838">
        <ele>880</ele>
        <time>2019-06-25T15:25:58Z</time>
      </trkpt>
      <trkpt lat="45.02587" lon="3.08387">
        <ele>877</ele>
        <time>2019-06-25T15:26:18Z</time>
      </trkpt>
      <trkpt lat="45.02645" lon="3.08435">
        <ele>864</ele>
        <time>2019-06-25T15:26:52Z</time>
      </trkpt>
      <trkpt lat="45.02659" lon="3.08443">
        <ele>861</ele>
        <time>2019-06-25T15:26:59Z</time>
      </trkpt>
      <trkpt lat="45.02684" lon="3.08452">
        <ele>858</ele>
        <time>2019-06-25T15:27:12Z</time>
      </trkpt>
      <trkpt lat="45.0271" lon="3.08451">
        <ele>857</ele>
        <time>2019-06-25T15:27:25Z</time>
      </trkpt>
      <trkpt lat="45.02717" lon="3.08463">
        <ele>856</ele>
        <time>2019-06-25T15:27:31Z</time>
      </trkpt>
      <trkpt lat="45.02722" lon="3.08487">
        <ele>853</ele>
        <time>2019-06-25T15:27:40Z</time>
      </trkpt>
      <trkpt lat="45.0274" lon="3.08521">
        <ele>849</ele>
        <time>2019-06-25T15:27:55Z</time>
      </trkpt>
      <trkpt lat="45.02794" lon="3.08587">
        <ele>839</ele>
        <time>2019-06-25T15:28:30Z</time>
      </trkpt>
      <trkpt lat="45.02812" lon="3.08622">
        <ele>835</ele>
        <time>2019-06-25T15:28:46Z</time>
      </trkpt>
      <trkpt lat="45.02822" lon="3.08632">
        <ele>832</ele>
        <time>2019-06-25T15:28:52Z</time>
      </trkpt>
      <trkpt lat="45.02843" lon="3.08661">
        <ele>826</ele>
        <time>2019-06-25T15:29:06Z</time>
      </trkpt>
      <trkpt lat="45.0285" lon="3.08675">
        <ele>825</ele>
        <time>2019-06-25T15:29:13Z</time>
      </trkpt>
      <trkpt lat="45.02892" lon="3.08715">
        <ele>820</ele>
        <time>2019-06-25T15:29:38Z</time>
      </trkpt>
      <trkpt lat="45.0291" lon="3.08741">
        <ele>815</ele>
        <time>2019-06-25T15:29:51Z</time>
      </trkpt>
      <trkpt lat="45.0292" lon="3.08748">
        <ele>813</ele>
        <time>2019-06-25T15:29:56Z</time>
      </trkpt>
      <trkpt lat="45.02918" lon="3.08751">
        <ele>813</ele>
        <time>2019-06-25T15:29:58Z</time>
      </trkpt>
      <trkpt lat="45.02919" lon="3.08749">
        <ele>813</ele>
        <time>2019-06-25T15:29:59Z</time>
      </trkpt>
      <trkpt lat="45.02922" lon="3.08754">
        <ele>812</ele>
        <time>2019-06-25T15:30:01Z</time>
      </trkpt>
      <trkpt lat="45.0293" lon="3.08785">
        <ele>810</ele>
        <time>2019-06-25T15:30:13Z</time>
      </trkpt>
      <trkpt lat="45.02941" lon="3.08809">
        <ele>808</ele>
        <time>2019-06-25T15:30:23Z</time>
      </trkpt>
      <trkpt lat="45.02941" lon="3.08833">
        <ele>807</ele>
        <time>2019-06-25T15:30:31Z</time>
      </trkpt>
      <trkpt lat="45.02945" lon="3.08852">
        <ele>807</ele>
        <time>2019-06-25T15:30:38Z</time>
      </trkpt>
      <trkpt lat="45.02965" lon="3.08892">
        <ele>804</ele>
        <time>2019-06-25T15:30:56Z</time>
      </trkpt>
      <trkpt lat="45.02974" lon="3.08924">
        <ele>801</ele>
        <time>2019-06-25T15:31:08Z</time>
      </trkpt>
      <trkpt lat="45.02979" lon="3.08961">
        <ele>800</ele>
        <time>2019-06-25T15:31:21Z</time>
      </trkpt>
      <trkpt lat="45.02982" lon="3.08967">
        <ele>799</ele>
        <time>2019-06-25T15:31:24Z</time>
      </trkpt>
      <trkpt lat="45.03004" lon="3.08977">
        <ele>796</ele>
        <time>2019-06-25T15:31:35Z</time>
      </trkpt>
      <trkpt lat="45.03011" lon="3.08983">
        <ele>797</ele>
        <time>2019-06-25T15:31:39Z</time>
      </trkpt>
      <trkpt lat="45.03017" lon="3.09013">
        <ele>799</ele>
        <time>2019-06-25T15:31:50Z</time>
      </trkpt>
      <trkpt lat="45.03025" lon="3.09029">
        <ele>800</ele>
        <time>2019-06-25T15:31:57Z</time>
      </trkpt>
      <trkpt lat="45.03028" lon="3.09059">
        <ele>801</ele>
        <time>2019-06-25T15:32:08Z</time>
      </trkpt>
      <trkpt lat="45.03046" lon="3.09101">
        <ele>806</ele>
        <time>2019-06-25T15:32:25Z</time>
      </trkpt>
      <trkpt lat="45.03056" lon="3.0911">
        <ele>808</ele>
        <time>2019-06-25T15:32:31Z</time>
      </trkpt>
      <trkpt lat="45.03058" lon="3.09119">
        <ele>809</ele>
        <time>2019-06-25T15:32:35Z</time>
      </trkpt>
      <trkpt lat="45.03054" lon="3.09169">
        <ele>808</ele>
        <time>2019-06-25T15:32:52Z</time>
      </trkpt>
      <trkpt lat="45.03046" lon="3.09233">
        <ele>802</ele>
        <time>2019-06-25T15:33:15Z</time>
      </trkpt>
      <trkpt lat="45.03038" lon="3.09248">
        <ele>799</ele>
        <time>2019-06-25T15:33:22Z</time>
      </trkpt>
      <trkpt lat="45.03008" lon="3.09291">
        <ele>790</ele>
        <time>2019-06-25T15:33:43Z</time>
      </trkpt>
      <trkpt lat="45.02983" lon="3.09314">
        <ele>788</ele>
        <time>2019-06-25T15:33:58Z</time>
      </trkpt>
      <trkpt lat="45.02954" lon="3.09334">
        <ele>787</ele>
        <time>2019-06-25T15:34:15Z</time>
      </trkpt>
      <trkpt lat="45.02934" lon="3.0934">
        <ele>788</ele>
        <time>2019-06-25T15:34:25Z</time>
      </trkpt>
      <trkpt lat="45.02921" lon="3.0934">
        <ele>788</ele>
        <time>2019-06-25T15:34:31Z</time>
      </trkpt>
      <trkpt lat="45.02913" lon="3.09351">
        <ele>790</ele>
        <time>2019-06-25T15:34:37Z</time>
      </trkpt>
      <trkpt lat="45.02913" lon="3.09365">
        <ele>791</ele>
        <time>2019-06-25T15:34:42Z</time>
      </trkpt>
      <trkpt lat="45.02918" lon="3.09375">
        <ele>792</ele>
        <time>2019-06-25T15:34:46Z</time>
      </trkpt>
      <trkpt lat="45.0292" lon="3.09387">
        <ele>794</ele>
        <time>2019-06-25T15:34:50Z</time>
      </trkpt>
      <trkpt lat="45.02916" lon="3.09394">
        <ele>795</ele>
        <time>2019-06-25T15:34:54Z</time>
      </trkpt>
      <trkpt lat="45.02889" lon="3.09388">
        <ele>796</ele>
        <time>2019-06-25T15:35:07Z</time>
      </trkpt>
      <trkpt lat="45.02877" lon="3.09391">
        <ele>798</ele>
        <time>2019-06-25T15:35:13Z</time>
      </trkpt>
      <trkpt lat="45.02872" lon="3.09389">
        <ele>798</ele>
        <time>2019-06-25T15:35:16Z</time>
      </trkpt>
      <trkpt lat="45.02822" lon="3.09414">
        <ele>805</ele>
        <time>2019-06-25T15:35:43Z</time>
      </trkpt>
      <trkpt lat="45.02809" lon="3.09428">
        <ele>809</ele>
        <time>2019-06-25T15:35:51Z</time>
      </trkpt>
      <trkpt lat="45.02812" lon="3.09435">
        <ele>811</ele>
        <time>2019-06-25T15:35:54Z</time>
      </trkpt>
      <trkpt lat="45.02836" lon="3.0944">
        <ele>813</ele>
        <time>2019-06-25T15:36:06Z</time>
      </trkpt>
      <trkpt lat="45.02857" lon="3.0946">
        <ele>817</ele>
        <time>2019-06-25T15:36:18Z</time>
      </trkpt>
      <trkpt lat="45.02867" lon="3.09465">
        <ele>818</ele>
        <time>2019-06-25T15:36:24Z</time>
      </trkpt>
      <trkpt lat="45.02881" lon="3.09477">
        <ele>820</ele>
        <time>2019-06-25T15:36:32Z</time>
      </trkpt>
      <trkpt lat="45.02897" lon="3.09497">
        <ele>825</ele>
        <time>2019-06-25T15:36:43Z</time>
      </trkpt>
      <trkpt lat="45.02904" lon="3.09512">
        <ele>828</ele>
        <time>2019-06-25T15:36:49Z</time>
      </trkpt>
      <trkpt lat="45.02868" lon="3.09501">
        <ele>828</ele>
        <time>2019-06-25T15:37:07Z</time>
      </trkpt>
      <trkpt lat="45.0285" lon="3.095">
        <ele>830</ele>
        <time>2019-06-25T15:37:16Z</time>
      </trkpt>
      <trkpt lat="45.02839" lon="3.09502">
        <ele>831</ele>
        <time>2019-06-25T15:37:22Z</time>
      </trkpt>
      <trkpt lat="45.02787" lon="3.09522">
        <ele>838</ele>
        <time>2019-06-25T15:37:49Z</time>
      </trkpt>
      <trkpt lat="45.02755" lon="3.0954">
        <ele>845</ele>
        <time>2019-06-25T15:38:06Z</time>
      </trkpt>
      <trkpt lat="45.02714" lon="3.09554">
        <ele>850</ele>
        <time>2019-06-25T15:38:27Z</time>
      </trkpt>
      <trkpt lat="45.0266" lon="3.09564">
        <ele>853</ele>
        <time>2019-06-25T15:38:55Z</time>
      </trkpt>
      <trkpt lat="45.02636" lon="3.09592">
        <ele>862</ele>
        <time>2019-06-25T15:39:10Z</time>
      </trkpt>
      <trkpt lat="45.02628" lon="3.09597">
        <ele>863</ele>
        <time>2019-06-25T15:39:14Z</time>
      </trkpt>
      <trkpt lat="45.02612" lon="3.09605">
        <ele>866</ele>
        <time>2019-06-25T15:39:23Z</time>
      </trkpt>
      <trkpt lat="45.02569" lon="3.09616">
        <ele>870</ele>
        <time>2019-06-25T15:39:45Z</time>
      </trkpt>
      <trkpt lat="45.02536" lon="3.0963">
        <ele>875</ele>
        <time>2019-06-25T15:40:02Z</time>
      </trkpt>
      <trkpt lat="45.02534" lon="3.09648">
        <ele>876</ele>
        <time>2019-06-25T15:40:09Z</time>
      </trkpt>
      <trkpt lat="45.02535" lon="3.09653">
        <ele>876</ele>
        <time>2019-06-25T15:40:10Z</time>
      </trkpt>
      <trkpt lat="45.02537" lon="3.09652">
        <ele>876</ele>
        <time>2019-06-25T15:40:11Z</time>
      </trkpt>
      <trkpt lat="45.02541" lon="3.09656">
        <ele>877</ele>
        <time>2019-06-25T15:40:14Z</time>
      </trkpt>
      <trkpt lat="45.02547" lon="3.09666">
        <ele>877</ele>
        <time>2019-06-25T15:40:19Z</time>
      </trkpt>
      <trkpt lat="45.02546" lon="3.09669">
        <ele>878</ele>
        <time>2019-06-25T15:40:20Z</time>
      </trkpt>
      <trkpt lat="45.02552" lon="3.09675">
        <ele>878</ele>
        <time>2019-06-25T15:40:23Z</time>
      </trkpt>
      <trkpt lat="45.02556" lon="3.09689">
        <ele>880</ele>
        <time>2019-06-25T15:40:29Z</time>
      </trkpt>
      <trkpt lat="45.02581" lon="3.09738">
        <ele>886</ele>
        <time>2019-06-25T15:40:50Z</time>
      </trkpt>
      <trkpt lat="45.02586" lon="3.09744">
        <ele>887</ele>
        <time>2019-06-25T15:40:53Z</time>
      </trkpt>
      <trkpt lat="45.02587" lon="3.0975">
        <ele>888</ele>
        <time>2019-06-25T15:40:56Z</time>
      </trkpt>
      <trkpt lat="45.02598" lon="3.09768">
        <ele>888</ele>
        <time>2019-06-25T15:41:04Z</time>
      </trkpt>
      <trkpt lat="45.02604" lon="3.09773">
        <ele>888</ele>
        <time>2019-06-25T15:41:07Z</time>
      </trkpt>
      <trkpt lat="45.02615" lon="3.09759">
        <ele>888</ele>
        <time>2019-06-25T15:41:15Z</time>
      </trkpt>
      <trkpt lat="45.0263" lon="3.09731">
        <ele>886</ele>
        <time>2019-06-25T15:41:27Z</time>
      </trkpt>
      <trkpt lat="45.02641" lon="3.09723">
        <ele>885</ele>
        <time>2019-06-25T15:41:33Z</time>
      </trkpt>
      <trkpt lat="45.02677" lon="3.09718">
        <ele>884</ele>
        <time>2019-06-25T15:41:52Z</time>
      </trkpt>
      <trkpt lat="45.02721" lon="3.09698">
        <ele>882</ele>
        <time>2019-06-25T15:42:15Z</time>
      </trkpt>
      <trkpt lat="45.02759" lon="3.09686">
        <ele>881</ele>
        <time>2019-06-25T15:42:34Z</time>
      </trkpt>
      <trkpt lat="45.02809" lon="3.09683">
        <ele>875</ele>
        <time>2019-06-25T15:42:59Z</time>
      </trkpt>
      <trkpt lat="45.02825" lon="3.09688">
        <ele>873</ele>
        <time>2019-06-25T15:43:07Z</time>
      </trkpt>
      <trkpt lat="45.02835" lon="3.09695">
        <ele>873</ele>
        <time>2019-06-25T15:43:13Z</time>
      </trkpt>
      <trkpt lat="45.0284" lon="3.09703">
        <ele>873</ele>
        <time>2019-06-25T15:43:17Z</time>
      </trkpt>
      <trkpt lat="45.0285" lon="3.09706">
        <ele>872</ele>
        <time>2019-06-25T15:43:22Z</time>
      </trkpt>
      <trkpt lat="45.02861" lon="3.09703">
        <ele>870</ele>
        <time>2019-06-25T15:43:28Z</time>
      </trkpt>
      <trkpt lat="45.02867" lon="3.09704">
        <ele>869</ele>
        <time>2019-06-25T15:43:31Z</time>
      </trkpt>
      <trkpt lat="45.02869" lon="3.09716">
        <ele>870</ele>
        <time>2019-06-25T15:43:35Z</time>
      </trkpt>
      <trkpt lat="45.0288" lon="3.09729">
        <ele>870</ele>
        <time>2019-06-25T15:43:42Z</time>
      </trkpt>
      <trkpt lat="45.02894" lon="3.09737">
        <ele>870</ele>
        <time>2019-06-25T15:43:50Z</time>
      </trkpt>
      <trkpt lat="45.02911" lon="3.09756">
        <ele>870</ele>
        <time>2019-06-25T15:44:00Z</time>
      </trkpt>
      <trkpt lat="45.02917" lon="3.09771">
        <ele>871</ele>
        <time>2019-06-25T15:44:07Z</time>
      </trkpt>
      <trkpt lat="45.02922" lon="3.09809">
        <ele>872</ele>
        <time>2019-06-25T15:44:20Z</time>
      </trkpt>
      <trkpt lat="45.02926" lon="3.09817">
        <ele>871</ele>
        <time>2019-06-25T15:44:24Z</time>
      </trkpt>
      <trkpt lat="45.02924" lon="3.09805">
        <ele>871</ele>
        <time>2019-06-25T15:44:28Z</time>
      </trkpt>
      <trkpt lat="45.02926" lon="3.09823">
        <ele>871</ele>
        <time>2019-06-25T15:44:34Z</time>
      </trkpt>
      <trkpt lat="45.02919" lon="3.0985">
        <ele>876</ele>
        <time>2019-06-25T15:44:45Z</time>
      </trkpt>
      <trkpt lat="45.02912" lon="3.09926">
        <ele>880</ele>
        <time>2019-06-25T15:45:12Z</time>
      </trkpt>
      <trkpt lat="45.02927" lon="3.10012">
        <ele>879</ele>
        <time>2019-06-25T15:45:43Z</time>
      </trkpt>
      <trkpt lat="45.02933" lon="3.10031">
        <ele>877</ele>
        <time>2019-06-25T15:45:50Z</time>
      </trkpt>
      <trkpt lat="45.02935" lon="3.10068">
        <ele>876</ele>
        <time>2019-06-25T15:46:04Z</time>
      </trkpt>
      <trkpt lat="45.02932" lon="3.10089">
        <ele>877</ele>
        <time>2019-06-25T15:46:11Z</time>
      </trkpt>
      <trkpt lat="45.02921" lon="3.10112">
        <ele>880</ele>
        <time>2019-06-25T15:46:21Z</time>
      </trkpt>
      <trkpt lat="45.02922" lon="3.10148">
        <ele>878</ele>
        <time>2019-06-25T15:46:34Z</time>
      </trkpt>
      <trkpt lat="45.02915" lon="3.10184">
        <ele>879</ele>
        <time>2019-06-25T15:46:47Z</time>
      </trkpt>
      <trkpt lat="45.02904" lon="3.10216">
        <ele>878</ele>
        <time>2019-06-25T15:47:00Z</time>
      </trkpt>
      <trkpt lat="45.029" lon="3.10238">
        <ele>878</ele>
        <time>2019-06-25T15:47:08Z</time>
      </trkpt>
      <trkpt lat="45.02904" lon="3.10284">
        <ele>877</ele>
        <time>2019-06-25T15:47:24Z</time>
      </trkpt>
      <trkpt lat="45.02916" lon="3.10324">
        <ele>877</ele>
        <time>2019-06-25T15:47:39Z</time>
      </trkpt>
      <trkpt lat="45.02928" lon="3.10376">
        <ele>876</ele>
        <time>2019-06-25T15:47:59Z</time>
      </trkpt>
      <trkpt lat="45.02954" lon="3.1046">
        <ele>874</ele>
        <time>2019-06-25T15:48:31Z</time>
      </trkpt>
      <trkpt lat="45.0296" lon="3.10494">
        <ele>873</ele>
        <time>2019-06-25T15:48:43Z</time>
      </trkpt>
      <trkpt lat="45.02961" lon="3.10526">
        <ele>872</ele>
        <time>2019-06-25T15:48:55Z</time>
      </trkpt>
      <trkpt lat="45.02969" lon="3.10546">
        <ele>871</ele>
        <time>2019-06-25T15:49:03Z</time>
      </trkpt>
      <trkpt lat="45.02981" lon="3.10562">
        <ele>869</ele>
        <time>2019-06-25T15:49:11Z</time>
      </trkpt>
      <trkpt lat="45.02991" lon="3.10583">
        <ele>867</ele>
        <time>2019-06-25T15:49:20Z</time>
      </trkpt>
      <trkpt lat="45.03003" lon="3.10592">
        <ele>864</ele>
        <time>2019-06-25T15:49:27Z</time>
      </trkpt>
      <trkpt lat="45.03009" lon="3.10614">
        <ele>860</ele>
        <time>2019-06-25T15:49:35Z</time>
      </trkpt>
      <trkpt lat="45.03034" lon="3.10649">
        <ele>849</ele>
        <time>2019-06-25T15:49:53Z</time>
      </trkpt>
      <trkpt lat="45.03037" lon="3.10667">
        <ele>846</ele>
        <time>2019-06-25T15:49:59Z</time>
      </trkpt>
      <trkpt lat="45.03012" lon="3.1074">
        <ele>840</ele>
        <time>2019-06-25T15:50:28Z</time>
      </trkpt>
      <trkpt lat="45.03004" lon="3.10768">
        <ele>838</ele>
        <time>2019-06-25T15:50:39Z</time>
      </trkpt>
      <trkpt lat="45.02999" lon="3.108">
        <ele>835</ele>
        <time>2019-06-25T15:50:50Z</time>
      </trkpt>
      <trkpt lat="45.02985" lon="3.10811">
        <ele>834</ele>
        <time>2019-06-25T15:50:58Z</time>
      </trkpt>
      <trkpt lat="45.02962" lon="3.10841">
        <ele>830</ele>
        <time>2019-06-25T15:51:14Z</time>
      </trkpt>
      <trkpt lat="45.02912" lon="3.10849">
        <ele>827</ele>
        <time>2019-06-25T15:51:39Z</time>
      </trkpt>
      <trkpt lat="45.02894" lon="3.10846">
        <ele>826</ele>
        <time>2019-06-25T15:51:48Z</time>
      </trkpt>
      <trkpt lat="45.02869" lon="3.10832">
        <ele>826</ele>
        <time>2019-06-25T15:52:02Z</time>
      </trkpt>
      <trkpt lat="45.02825" lon="3.10791">
        <ele>832</ele>
        <time>2019-06-25T15:52:28Z</time>
      </trkpt>
      <trkpt lat="45.02814" lon="3.10791">
        <ele>834</ele>
        <time>2019-06-25T15:52:34Z</time>
      </trkpt>
      <trkpt lat="45.02809" lon="3.10799">
        <ele>834</ele>
        <time>2019-06-25T15:52:37Z</time>
      </trkpt>
      <trkpt lat="45.02803" lon="3.10872">
        <ele>826</ele>
        <time>2019-06-25T15:53:03Z</time>
      </trkpt>
      <trkpt lat="45.02804" lon="3.10924">
        <ele>820</ele>
        <time>2019-06-25T15:53:22Z</time>
      </trkpt>
      <trkpt lat="45.02807" lon="3.1095">
        <ele>817</ele>
        <time>2019-06-25T15:53:31Z</time>
      </trkpt>
      <trkpt lat="45.02806" lon="3.10971">
        <ele>815</ele>
        <time>2019-06-25T15:53:39Z</time>
      </trkpt>
      <trkpt lat="45.02794" lon="3.10989">
        <ele>815</ele>
        <time>2019-06-25T15:53:47Z</time>
      </trkpt>
      <trkpt lat="45.02767" lon="3.11014">
        <ele>818</ele>
        <time>2019-06-25T15:54:03Z</time>
      </trkpt>
      <trkpt lat="45.02754" lon="3.11022">
        <ele>819</ele>
        <time>2019-06-25T15:54:11Z</time>
      </trkpt>
      <trkpt lat="45.02745" lon="3.11039">
        <ele>819</ele>
        <time>2019-06-25T15:54:18Z</time>
      </trkpt>
      <trkpt lat="45.02734" lon="3.11051">
        <ele>820</ele>
        <time>2019-06-25T15:54:25Z</time>
      </trkpt>
      <trkpt lat="45.02676" lon="3.11103">
        <ele>822</ele>
        <time>2019-06-25T15:54:59Z</time>
      </trkpt>
      <trkpt lat="45.02648" lon="3.11117">
        <ele>819</ele>
        <time>2019-06-25T15:55:14Z</time>
      </trkpt>
      <trkpt lat="45.02634" lon="3.11114">
        <ele>821</ele>
        <time>2019-06-25T15:55:21Z</time>
      </trkpt>
      <trkpt lat="45.02625" lon="3.11115">
        <ele>821</ele>
        <time>2019-06-25T15:55:26Z</time>
      </trkpt>
      <trkpt lat="45.02609" lon="3.11089">
        <ele>830</ele>
        <time>2019-06-25T15:55:38Z</time>
      </trkpt>
      <trkpt lat="45.02601" lon="3.11082">
        <ele>833</ele>
        <time>2019-06-25T15:55:43Z</time>
      </trkpt>
      <trkpt lat="45.02592" lon="3.11078">
        <ele>834</ele>
        <time>2019-06-25T15:55:47Z</time>
      </trkpt>
      <trkpt lat="45.02578" lon="3.11076">
        <ele>834</ele>
        <time>2019-06-25T15:55:55Z</time>
      </trkpt>
      <trkpt lat="45.02569" lon="3.11067">
        <ele>836</ele>
        <time>2019-06-25T15:56:00Z</time>
      </trkpt>
      <trkpt lat="45.02539" lon="3.11046">
        <ele>839</ele>
        <time>2019-06-25T15:56:17Z</time>
      </trkpt>
      <trkpt lat="45.02504" lon="3.11035">
        <ele>838</ele>
        <time>2019-06-25T15:56:35Z</time>
      </trkpt>
      <trkpt lat="45.02488" lon="3.11043">
        <ele>836</ele>
        <time>2019-06-25T15:56:43Z</time>
      </trkpt>
      <trkpt lat="45.02475" lon="3.11046">
        <ele>835</ele>
        <time>2019-06-25T15:56:50Z</time>
      </trkpt>
      <trkpt lat="45.02452" lon="3.1103">
        <ele>835</ele>
        <time>2019-06-25T15:57:03Z</time>
      </trkpt>
      <trkpt lat="45.02441" lon="3.11029">
        <ele>835</ele>
        <time>2019-06-25T15:57:08Z</time>
      </trkpt>
      <trkpt lat="45.02434" lon="3.11031">
        <ele>834</ele>
        <time>2019-06-25T15:57:12Z</time>
      </trkpt>
      <trkpt lat="45.0244" lon="3.11046">
        <ele>833</ele>
        <time>2019-06-25T15:57:18Z</time>
      </trkpt>
      <trkpt lat="45.02437" lon="3.11051">
        <ele>833</ele>
        <time>2019-06-25T15:57:20Z</time>
      </trkpt>
      <trkpt lat="45.02432" lon="3.1105">
        <ele>833</ele>
        <time>2019-06-25T15:57:23Z</time>
      </trkpt>
      <trkpt lat="45.02429" lon="3.11053">
        <ele>833</ele>
        <time>2019-06-25T15:57:24Z</time>
      </trkpt>
      <trkpt lat="45.02426" lon="3.11062">
        <ele>832</ele>
        <time>2019-06-25T15:57:28Z</time>
      </trkpt>
      <trkpt lat="45.02435" lon="3.11075">
        <ele>831</ele>
        <time>2019-06-25T15:57:34Z</time>
      </trkpt>
      <trkpt lat="45.02442" lon="3.11104">
        <ele>830</ele>
        <time>2019-06-25T15:57:45Z</time>
      </trkpt>
      <trkpt lat="45.02451" lon="3.11111">
        <ele>829</ele>
        <time>2019-06-25T15:57:50Z</time>
      </trkpt>
      <trkpt lat="45.02469" lon="3.11138">
        <ele>824</ele>
        <time>2019-06-25T15:58:04Z</time>
      </trkpt>
      <trkpt lat="45.02481" lon="3.11163">
        <ele>820</ele>
        <time>2019-06-25T15:58:14Z</time>
      </trkpt>
      <trkpt lat="45.02482" lon="3.11181">
        <ele>817</ele>
        <time>2019-06-25T15:58:21Z</time>
      </trkpt>
      <trkpt lat="45.02488" lon="3.1119">
        <ele>814</ele>
        <time>2019-06-25T15:58:25Z</time>
      </trkpt>
      <trkpt lat="45.02484" lon="3.11202">
        <ele>813</ele>
        <time>2019-06-25T15:58:30Z</time>
      </trkpt>
      <trkpt lat="45.02449" lon="3.11224">
        <ele>819</ele>
        <time>2019-06-25T15:58:49Z</time>
      </trkpt>
      <trkpt lat="45.02435" lon="3.1124">
        <ele>820</ele>
        <time>2019-06-25T15:58:58Z</time>
      </trkpt>
      <trkpt lat="45.02426" lon="3.11262">
        <ele>818</ele>
        <time>2019-06-25T15:59:07Z</time>
      </trkpt>
      <trkpt lat="45.02417" lon="3.11276">
        <ele>816</ele>
        <time>2019-06-25T15:59:14Z</time>
      </trkpt>
      <trkpt lat="45.02388" lon="3.11303">
        <ele>811</ele>
        <time>2019-06-25T15:59:31Z</time>
      </trkpt>
      <trkpt lat="45.02365" lon="3.11307">
        <ele>813</ele>
        <time>2019-06-25T15:59:43Z</time>
      </trkpt>
      <trkpt lat="45.02356" lon="3.11315">
        <ele>812</ele>
        <time>2019-06-25T15:59:48Z</time>
      </trkpt>
      <trkpt lat="45.02341" lon="3.11343">
        <ele>808</ele>
        <time>2019-06-25T16:00:00Z</time>
      </trkpt>
      <trkpt lat="45.02328" lon="3.11352">
        <ele>807</ele>
        <time>2019-06-25T16:00:08Z</time>
      </trkpt>
      <trkpt lat="45.02289" lon="3.1136">
        <ele>808</ele>
        <time>2019-06-25T16:00:27Z</time>
      </trkpt>
      <trkpt lat="45.02279" lon="3.11375">
        <ele>806</ele>
        <time>2019-06-25T16:00:35Z</time>
      </trkpt>
      <trkpt lat="45.02283" lon="3.11432">
        <ele>798</ele>
        <time>2019-06-25T16:00:55Z</time>
      </trkpt>
      <trkpt lat="45.02277" lon="3.1144">
        <ele>799</ele>
        <time>2019-06-25T16:00:59Z</time>
      </trkpt>
      <trkpt lat="45.02275" lon="3.1145">
        <ele>800</ele>
        <time>2019-06-25T16:01:03Z</time>
      </trkpt>
      <trkpt lat="45.02268" lon="3.11459">
        <ele>801</ele>
        <time>2019-06-25T16:01:07Z</time>
      </trkpt>
      <trkpt lat="45.02266" lon="3.1146">
        <ele>801</ele>
        <time>2019-06-25T16:01:08Z</time>
      </trkpt>
      <trkpt lat="45.02266" lon="3.11458">
        <ele>801</ele>
        <time>2019-06-25T16:01:09Z</time>
      </trkpt>
      <trkpt lat="45.0227" lon="3.1146">
        <ele>801</ele>
        <time>2019-06-25T16:01:11Z</time>
      </trkpt>
      <trkpt lat="45.02264" lon="3.11465">
        <ele>802</ele>
        <time>2019-06-25T16:01:15Z</time>
      </trkpt>
      <trkpt lat="45.02256" lon="3.11467">
        <ele>803</ele>
        <time>2019-06-25T16:01:19Z</time>
      </trkpt>
      <trkpt lat="45.02227" lon="3.11461">
        <ele>809</ele>
        <time>2019-06-25T16:01:33Z</time>
      </trkpt>
      <trkpt lat="45.02217" lon="3.11465">
        <ele>812</ele>
        <time>2019-06-25T16:01:39Z</time>
      </trkpt>
      <trkpt lat="45.02215" lon="3.11514">
        <ele>813</ele>
        <time>2019-06-25T16:01:56Z</time>
      </trkpt>
      <trkpt lat="45.02206" lon="3.1155">
        <ele>814</ele>
        <time>2019-06-25T16:02:09Z</time>
      </trkpt>
      <trkpt lat="45.02205" lon="3.11568">
        <ele>814</ele>
        <time>2019-06-25T16:02:16Z</time>
      </trkpt>
      <trkpt lat="45.02186" lon="3.1162">
        <ele>816</ele>
        <time>2019-06-25T16:02:37Z</time>
      </trkpt>
      <trkpt lat="45.02181" lon="3.11628">
        <ele>817</ele>
        <time>2019-06-25T16:02:40Z</time>
      </trkpt>
      <trkpt lat="45.02176" lon="3.11629">
        <ele>818</ele>
        <time>2019-06-25T16:02:43Z</time>
      </trkpt>
      <trkpt lat="45.02165" lon="3.11625">
        <ele>821</ele>
        <time>2019-06-25T16:02:49Z</time>
      </trkpt>
      <trkpt lat="45.02161" lon="3.11616">
        <ele>822</ele>
        <time>2019-06-25T16:02:52Z</time>
      </trkpt>
      <trkpt lat="45.02152" lon="3.11609">
        <ele>822</ele>
        <time>2019-06-25T16:02:57Z</time>
      </trkpt>
      <trkpt lat="45.02142" lon="3.11605">
        <ele>822</ele>
        <time>2019-06-25T16:03:03Z</time>
      </trkpt>
      <trkpt lat="45.02131" lon="3.11606">
        <ele>822</ele>
        <time>2019-06-25T16:03:08Z</time>
      </trkpt>
      <trkpt lat="45.02123" lon="3.11627">
        <ele>821</ele>
        <time>2019-06-25T16:03:17Z</time>
      </trkpt>
      <trkpt lat="45.02107" lon="3.11693">
        <ele>818</ele>
        <time>2019-06-25T16:03:41Z</time>
      </trkpt>
      <trkpt lat="45.02111" lon="3.11748">
        <ele>813</ele>
        <time>2019-06-25T16:04:01Z</time>
      </trkpt>
      <trkpt lat="45.02108" lon="3.11768">
        <ele>812</ele>
        <time>2019-06-25T16:04:08Z</time>
      </trkpt>
      <trkpt lat="45.02111" lon="3.11797">
        <ele>809</ele>
        <time>2019-06-25T16:04:18Z</time>
      </trkpt>
      <trkpt lat="45.02112" lon="3.11864">
        <ele>805</ele>
        <time>2019-06-25T16:04:42Z</time>
      </trkpt>
      <trkpt lat="45.02116" lon="3.11898">
        <ele>803</ele>
        <time>2019-06-25T16:04:54Z</time>
      </trkpt>
      <trkpt lat="45.02123" lon="3.11919">
        <ele>801</ele>
        <time>2019-06-25T16:05:03Z</time>
      </trkpt>
      <trkpt lat="45.02143" lon="3.11954">
        <ele>798</ele>
        <time>2019-06-25T16:05:18Z</time>
      </trkpt>
      <trkpt lat="45.02146" lon="3.11972">
        <ele>796</ele>
        <time>2019-06-25T16:05:25Z</time>
      </trkpt>
      <trkpt lat="45.02149" lon="3.11975">
        <ele>796</ele>
        <time>2019-06-25T16:05:27Z</time>
      </trkpt>
      <trkpt lat="45.02147" lon="3.11974">
        <ele>796</ele>
        <time>2019-06-25T16:05:28Z</time>
      </trkpt>
      <trkpt lat="45.0214" lon="3.11978">
        <ele>795</ele>
        <time>2019-06-25T16:05:32Z</time>
      </trkpt>
      <trkpt lat="45.02134" lon="3.11975">
        <ele>795</ele>
        <time>2019-06-25T16:05:35Z</time>
      </trkpt>
      <trkpt lat="45.0214" lon="3.11991">
        <ele>794</ele>
        <time>2019-06-25T16:05:41Z</time>
      </trkpt>
      <trkpt lat="45.02139" lon="3.11995">
        <ele>794</ele>
        <time>2019-06-25T16:05:43Z</time>
      </trkpt>
      <trkpt lat="45.02126" lon="3.11985">
        <ele>794</ele>
        <time>2019-06-25T16:05:50Z</time>
      </trkpt>
      <trkpt lat="45.02124" lon="3.11981">
        <ele>795</ele>
        <time>2019-06-25T16:05:52Z</time>
      </trkpt>
      <trkpt lat="45.02125" lon="3.11984">
        <ele>794</ele>
        <time>2019-06-25T16:05:53Z</time>
      </trkpt>
      <trkpt lat="45.02118" lon="3.11968">
        <ele>796</ele>
        <time>2019-06-25T16:06:00Z</time>
      </trkpt>
      <trkpt lat="45.02101" lon="3.11954">
        <ele>797</ele>
        <time>2019-06-25T16:06:10Z</time>
      </trkpt>
      <trkpt lat="45.02097" lon="3.11947">
        <ele>798</ele>
        <time>2019-06-25T16:06:13Z</time>
      </trkpt>
      <trkpt lat="45.0209" lon="3.11948">
        <ele>798</ele>
        <time>2019-06-25T16:06:16Z</time>
      </trkpt>
      <trkpt lat="45.02098" lon="3.11977">
        <ele>794</ele>
        <time>2019-06-25T16:06:27Z</time>
      </trkpt>
      <trkpt lat="45.02104" lon="3.11981">
        <ele>794</ele>
        <time>2019-06-25T16:06:31Z</time>
      </trkpt>
      <trkpt lat="45.021" lon="3.11985">
        <ele>793</ele>
        <time>2019-06-25T16:06:33Z</time>
      </trkpt>
      <trkpt lat="45.02097" lon="3.11979">
        <ele>794</ele>
        <time>2019-06-25T16:06:36Z</time>
      </trkpt>
      <trkpt lat="45.02099" lon="3.11988">
        <ele>793</ele>
        <time>2019-06-25T16:06:39Z</time>
      </trkpt>
      <trkpt lat="45.02095" lon="3.11992">
        <ele>792</ele>
        <time>2019-06-25T16:06:41Z</time>
      </trkpt>
      <trkpt lat="45.02099" lon="3.11992">
        <ele>793</ele>
        <time>2019-06-25T16:06:43Z</time>
      </trkpt>
      <trkpt lat="45.02099" lon="3.11998">
        <ele>792</ele>
        <time>2019-06-25T16:06:46Z</time>
      </trkpt>
      <trkpt lat="45.02097" lon="3.11992">
        <ele>792</ele>
        <time>2019-06-25T16:06:48Z</time>
      </trkpt>
      <trkpt lat="45.02106" lon="3.11995">
        <ele>792</ele>
        <time>2019-06-25T16:06:53Z</time>
      </trkpt>
      <trkpt lat="45.02109" lon="3.12004">
        <ele>791</ele>
        <time>2019-06-25T16:06:56Z</time>
      </trkpt>
      <trkpt lat="45.02103" lon="3.12013">
        <ele>790</ele>
        <time>2019-06-25T16:07:00Z</time>
      </trkpt>
      <trkpt lat="45.02105" lon="3.12008">
        <ele>791</ele>
        <time>2019-06-25T16:07:03Z</time>
      </trkpt>
      <trkpt lat="45.02103" lon="3.12">
        <ele>792</ele>
        <time>2019-06-25T16:07:06Z</time>
      </trkpt>
      <trkpt lat="45.02097" lon="3.11995">
        <ele>792</ele>
        <time>2019-06-25T16:07:09Z</time>
      </trkpt>
      <trkpt lat="45.02099" lon="3.12002">
        <ele>791</ele>
        <time>2019-06-25T16:07:12Z</time>
      </trkpt>
      <trkpt lat="45.02101" lon="3.12002">
        <ele>791</ele>
        <time>2019-06-25T16:07:13Z</time>
      </trkpt>
      <trkpt lat="45.02099" lon="3.12011">
        <ele>790</ele>
        <time>2019-06-25T16:07:16Z</time>
      </trkpt>
      <trkpt lat="45.02096" lon="3.12012">
        <ele>790</ele>
        <time>2019-06-25T16:07:18Z</time>
      </trkpt>
      <trkpt lat="45.021" lon="3.12008">
        <ele>791</ele>
        <time>2019-06-25T16:07:20Z</time>
      </trkpt>
      <trkpt lat="45.02118" lon="3.1202">
        <ele>789</ele>
        <time>2019-06-25T16:07:30Z</time>
      </trkpt>
      <trkpt lat="45.02126" lon="3.12029">
        <ele>787</ele>
        <time>2019-06-25T16:07:35Z</time>
      </trkpt>
      <trkpt lat="45.02128" lon="3.12044">
        <ele>784</ele>
        <time>2019-06-25T16:07:40Z</time>
      </trkpt>
      <trkpt lat="45.0214" lon="3.12072">
        <ele>778</ele>
        <time>2019-06-25T16:07:52Z</time>
      </trkpt>
      <trkpt lat="45.02155" lon="3.1209">
        <ele>773</ele>
        <time>2019-06-25T16:08:02Z</time>
      </trkpt>
      <trkpt lat="45.02168" lon="3.12096">
        <ele>771</ele>
        <time>2019-06-25T16:08:09Z</time>
      </trkpt>
      <trkpt lat="45.0217" lon="3.12101">
        <ele>770</ele>
        <time>2019-06-25T16:08:11Z</time>
      </trkpt>
      <trkpt lat="45.02169" lon="3.1211">
        <ele>769</ele>
        <time>2019-06-25T16:08:14Z</time>
      </trkpt>
      <trkpt lat="45.02173" lon="3.12111">
        <ele>768</ele>
        <time>2019-06-25T16:08:16Z</time>
      </trkpt>
      <trkpt lat="45.02172" lon="3.12117">
        <ele>768</ele>
        <time>2019-06-25T16:08:18Z</time>
      </trkpt>
      <trkpt lat="45.02179" lon="3.12119">
        <ele>767</ele>
        <time>2019-06-25T16:08:22Z</time>
      </trkpt>
      <trkpt lat="45.02174" lon="3.12125">
        <ele>766</ele>
        <time>2019-06-25T16:08:25Z</time>
      </trkpt>
      <trkpt lat="45.02182" lon="3.12104">
        <ele>768</ele>
        <time>2019-06-25T16:08:34Z</time>
      </trkpt>
      <trkpt lat="45.02197" lon="3.12081">
        <ele>768</ele>
        <time>2019-06-25T16:08:45Z</time>
      </trkpt>
      <trkpt lat="45.02202" lon="3.12068">
        <ele>770</ele>
        <time>2019-06-25T16:08:50Z</time>
      </trkpt>
      <trkpt lat="45.02226" lon="3.12036">
        <ele>768</ele>
        <time>2019-06-25T16:09:06Z</time>
      </trkpt>
      <trkpt lat="45.02232" lon="3.12024">
        <ele>767</ele>
        <time>2019-06-25T16:09:12Z</time>
      </trkpt>
      <trkpt lat="45.0223" lon="3.11996">
        <ele>770</ele>
        <time>2019-06-25T16:09:21Z</time>
      </trkpt>
      <trkpt lat="45.0224" lon="3.11938">
        <ele>770</ele>
        <time>2019-06-25T16:09:43Z</time>
      </trkpt>
      <trkpt lat="45.02241" lon="3.11905">
        <ele>771</ele>
        <time>2019-06-25T16:09:54Z</time>
      </trkpt>
      <trkpt lat="45.02256" lon="3.11872">
        <ele>769</ele>
        <time>2019-06-25T16:10:08Z</time>
      </trkpt>
      <trkpt lat="45.02258" lon="3.11861">
        <ele>769</ele>
        <time>2019-06-25T16:10:12Z</time>
      </trkpt>
      <trkpt lat="45.02281" lon="3.11807">
        <ele>771</ele>
        <time>2019-06-25T16:10:34Z</time>
      </trkpt>
      <trkpt lat="45.02291" lon="3.11796">
        <ele>770</ele>
        <time>2019-06-25T16:10:41Z</time>
      </trkpt>
      <trkpt lat="45.02302" lon="3.11791">
        <ele>768</ele>
        <time>2019-06-25T16:10:47Z</time>
      </trkpt>
      <trkpt lat="45.02311" lon="3.11793">
        <ele>766</ele>
        <time>2019-06-25T16:10:51Z</time>
      </trkpt>
      <trkpt lat="45.02333" lon="3.11736">
        <ele>766</ele>
        <time>2019-06-25T16:11:14Z</time>
      </trkpt>
      <trkpt lat="45.02327" lon="3.11719">
        <ele>770</ele>
        <time>2019-06-25T16:11:21Z</time>
      </trkpt>
      <trkpt lat="45.02327" lon="3.11706">
        <ele>771</ele>
        <time>2019-06-25T16:11:25Z</time>
      </trkpt>
      <trkpt lat="45.02321" lon="3.11683">
        <ele>776</ele>
        <time>2019-06-25T16:11:34Z</time>
      </trkpt>
      <trkpt lat="45.02324" lon="3.11663">
        <ele>778</ele>
        <time>2019-06-25T16:11:41Z</time>
      </trkpt>
      <trkpt lat="45.02333" lon="3.11647">
        <ele>778</ele>
        <time>2019-06-25T16:11:49Z</time>
      </trkpt>
      <trkpt lat="45.02341" lon="3.11607">
        <ele>781</ele>
        <time>2019-06-25T16:12:03Z</time>
      </trkpt>
      <trkpt lat="45.02353" lon="3.11578">
        <ele>781</ele>
        <time>2019-06-25T16:12:15Z</time>
      </trkpt>
      <trkpt lat="45.02352" lon="3.11561">
        <ele>782</ele>
        <time>2019-06-25T16:12:21Z</time>
      </trkpt>
      <trkpt lat="45.02345" lon="3.11536">
        <ele>784</ele>
        <time>2019-06-25T16:12:31Z</time>
      </trkpt>
      <trkpt lat="45.02346" lon="3.11513">
        <ele>785</ele>
        <time>2019-06-25T16:12:39Z</time>
      </trkpt>
      <trkpt lat="45.02332" lon="3.11454">
        <ele>791</ele>
        <time>2019-06-25T16:13:01Z</time>
      </trkpt>
      <trkpt lat="45.02333" lon="3.11452">
        <ele>791</ele>
        <time>2019-06-25T16:13:02Z</time>
      </trkpt>
      <trkpt lat="45.02357" lon="3.11448">
        <ele>785</ele>
        <time>2019-06-25T16:13:14Z</time>
      </trkpt>
      <trkpt lat="45.02367" lon="3.11438">
        <ele>784</ele>
        <time>2019-06-25T16:13:20Z</time>
      </trkpt>
      <trkpt lat="45.02377" lon="3.11398">
        <ele>788</ele>
        <time>2019-06-25T16:13:35Z</time>
      </trkpt>
      <trkpt lat="45.02387" lon="3.11387">
        <ele>789</ele>
        <time>2019-06-25T16:13:41Z</time>
      </trkpt>
      <trkpt lat="45.02392" lon="3.11376">
        <ele>791</ele>
        <time>2019-06-25T16:13:46Z</time>
      </trkpt>
      <trkpt lat="45.02414" lon="3.11355">
        <ele>792</ele>
        <time>2019-06-25T16:13:59Z</time>
      </trkpt>
      <trkpt lat="45.02451" lon="3.11335">
        <ele>791</ele>
        <time>2019-06-25T16:14:19Z</time>
      </trkpt>
      <trkpt lat="45.02481" lon="3.11305">
        <ele>792</ele>
        <time>2019-06-25T16:14:37Z</time>
      </trkpt>
      <trkpt lat="45.02502" lon="3.113">
        <ele>789</ele>
        <time>2019-06-25T16:14:48Z</time>
      </trkpt>
      <trkpt lat="45.02533" lon="3.11282">
        <ele>785</ele>
        <time>2019-06-25T16:15:05Z</time>
      </trkpt>
      <trkpt lat="45.02558" lon="3.11272">
        <ele>781</ele>
        <time>2019-06-25T16:15:18Z</time>
      </trkpt>
      <trkpt lat="45.02574" lon="3.11251">
        <ele>780</ele>
        <time>2019-06-25T16:15:29Z</time>
      </trkpt>
      <trkpt lat="45.02587" lon="3.11244">
        <ele>779</ele>
        <time>2019-06-25T16:15:36Z</time>
      </trkpt>
      <trkpt lat="45.02587" lon="3.1124">
        <ele>780</ele>
        <time>2019-06-25T16:15:37Z</time>
      </trkpt>
      <trkpt lat="45.02596" lon="3.11238">
        <ele>780</ele>
        <time>2019-06-25T16:15:42Z</time>
      </trkpt>
      <trkpt lat="45.02597" lon="3.11234">
        <ele>781</ele>
        <time>2019-06-25T16:15:43Z</time>
      </trkpt>
      <trkpt lat="45.02625" lon="3.11219">
        <ele>785</ele>
        <time>2019-06-25T16:15:58Z</time>
      </trkpt>
      <trkpt lat="45.0263" lon="3.11211">
        <ele>788</ele>
        <time>2019-06-25T16:16:02Z</time>
      </trkpt>
      <trkpt lat="45.02646" lon="3.11204">
        <ele>790</ele>
        <time>2019-06-25T16:16:10Z</time>
      </trkpt>
      <trkpt lat="45.02669" lon="3.11202">
        <ele>790</ele>
        <time>2019-06-25T16:16:22Z</time>
      </trkpt>
      <trkpt lat="45.02698" lon="3.11194">
        <ele>790</ele>
        <time>2019-06-25T16:16:37Z</time>
      </trkpt>
      <trkpt lat="45.02726" lon="3.11198">
        <ele>786</ele>
        <time>2019-06-25T16:16:51Z</time>
      </trkpt>
      <trkpt lat="45.02733" lon="3.11204">
        <ele>784</ele>
        <time>2019-06-25T16:16:55Z</time>
      </trkpt>
      <trkpt lat="45.02731" lon="3.11194">
        <ele>787</ele>
        <time>2019-06-25T16:16:59Z</time>
      </trkpt>
      <trkpt lat="45.02722" lon="3.11189">
        <ele>790</ele>
        <time>2019-06-25T16:17:03Z</time>
      </trkpt>
      <trkpt lat="45.02737" lon="3.112">
        <ele>785</ele>
        <time>2019-06-25T16:17:12Z</time>
      </trkpt>
      <trkpt lat="45.02758" lon="3.11225">
        <ele>778</ele>
        <time>2019-06-25T16:17:26Z</time>
      </trkpt>
      <trkpt lat="45.02759" lon="3.11223">
        <ele>779</ele>
        <time>2019-06-25T16:17:26Z</time>
      </trkpt>
      <trkpt lat="45.0277" lon="3.11235">
        <ele>778</ele>
        <time>2019-06-25T16:17:33Z</time>
      </trkpt>
      <trkpt lat="45.02772" lon="3.1124">
        <ele>777</ele>
        <time>2019-06-25T16:17:35Z</time>
      </trkpt>
      <trkpt lat="45.02779" lon="3.1124">
        <ele>778</ele>
        <time>2019-06-25T16:17:39Z</time>
      </trkpt>
      <trkpt lat="45.02787" lon="3.11244">
        <ele>779</ele>
        <time>2019-06-25T16:17:43Z</time>
      </trkpt>
      <trkpt lat="45.02794" lon="3.11251">
        <ele>779</ele>
        <time>2019-06-25T16:17:47Z</time>
      </trkpt>
      <trkpt lat="45.0279" lon="3.11247">
        <ele>779</ele>
        <time>2019-06-25T16:17:50Z</time>
      </trkpt>
      <trkpt lat="45.02793" lon="3.11246">
        <ele>780</ele>
        <time>2019-06-25T16:17:51Z</time>
      </trkpt>
      <trkpt lat="45.02798" lon="3.11249">
        <ele>780</ele>
        <time>2019-06-25T16:17:54Z</time>
      </trkpt>
      <trkpt lat="45.02806" lon="3.11246">
        <ele>782</ele>
        <time>2019-06-25T16:17:58Z</time>
      </trkpt>
      <trkpt lat="45.02823" lon="3.11219">
        <ele>787</ele>
        <time>2019-06-25T16:18:11Z</time>
      </trkpt>
      <trkpt lat="45.02828" lon="3.11215">
        <ele>788</ele>
        <time>2019-06-25T16:18:14Z</time>
      </trkpt>
      <trkpt lat="45.02832" lon="3.11215">
        <ele>788</ele>
        <time>2019-06-25T16:18:16Z</time>
      </trkpt>
      <trkpt lat="45.02857" lon="3.1117">
        <ele>794</ele>
        <time>2019-06-25T16:18:36Z</time>
      </trkpt>
      <trkpt lat="45.02864" lon="3.1115">
        <ele>797</ele>
        <time>2019-06-25T16:18:44Z</time>
      </trkpt>
      <trkpt lat="45.02869" lon="3.11144">
        <ele>799</ele>
        <time>2019-06-25T16:18:47Z</time>
      </trkpt>
      <trkpt lat="45.02891" lon="3.11144">
        <ele>803</ele>
        <time>2019-06-25T16:18:58Z</time>
      </trkpt>
      <trkpt lat="45.02898" lon="3.11147">
        <ele>804</ele>
        <time>2019-06-25T16:19:02Z</time>
      </trkpt>
      <trkpt lat="45.02887" lon="3.11202">
        <ele>799</ele>
        <time>2019-06-25T16:19:22Z</time>
      </trkpt>
      <trkpt lat="45.02894" lon="3.11199">
        <ele>800</ele>
        <time>2019-06-25T16:19:26Z</time>
      </trkpt>
      <trkpt lat="45.02911" lon="3.11184">
        <ele>805</ele>
        <time>2019-06-25T16:19:36Z</time>
      </trkpt>
      <trkpt lat="45.0292" lon="3.11173">
        <ele>806</ele>
        <time>2019-06-25T16:19:42Z</time>
      </trkpt>
      <trkpt lat="45.02935" lon="3.11147">
        <ele>808</ele>
        <time>2019-06-25T16:19:54Z</time>
      </trkpt>
      <trkpt lat="45.02946" lon="3.11115">
        <ele>813</ele>
        <time>2019-06-25T16:20:06Z</time>
      </trkpt>
      <trkpt lat="45.02951" lon="3.11109">
        <ele>814</ele>
        <time>2019-06-25T16:20:10Z</time>
      </trkpt>
      <trkpt lat="45.02954" lon="3.11096">
        <ele>816</ele>
        <time>2019-06-25T16:20:14Z</time>
      </trkpt>
      <trkpt lat="45.0296" lon="3.11046">
        <ele>820</ele>
        <time>2019-06-25T16:20:32Z</time>
      </trkpt>
      <trkpt lat="45.02968" lon="3.11007">
        <ele>823</ele>
        <time>2019-06-25T16:20:47Z</time>
      </trkpt>
      <trkpt lat="45.02971" lon="3.10973">
        <ele>824</ele>
        <time>2019-06-25T16:20:59Z</time>
      </trkpt>
      <trkpt lat="45.02979" lon="3.10943">
        <ele>825</ele>
        <time>2019-06-25T16:21:10Z</time>
      </trkpt>
      <trkpt lat="45.02999" lon="3.10819">
        <ele>833</ele>
        <time>2019-06-25T16:21:55Z</time>
      </trkpt>
      <trkpt lat="45.03006" lon="3.1079">
        <ele>835</ele>
        <time>2019-06-25T16:22:06Z</time>
      </trkpt>
      <trkpt lat="45.03038" lon="3.10752">
        <ele>833</ele>
        <time>2019-06-25T16:22:27Z</time>
      </trkpt>
      <trkpt lat="45.03046" lon="3.10739">
        <ele>833</ele>
        <time>2019-06-25T16:22:33Z</time>
      </trkpt>
      <trkpt lat="45.03057" lon="3.10709">
        <ele>835</ele>
        <time>2019-06-25T16:22:45Z</time>
      </trkpt>
      <trkpt lat="45.0306" lon="3.10704">
        <ele>834</ele>
        <time>2019-06-25T16:22:47Z</time>
      </trkpt>
      <trkpt lat="45.03066" lon="3.10702">
        <ele>833</ele>
        <time>2019-06-25T16:22:50Z</time>
      </trkpt>
      <trkpt lat="45.03066" lon="3.10692">
        <ele>835</ele>
        <time>2019-06-25T16:22:54Z</time>
      </trkpt>
      <trkpt lat="45.03091" lon="3.10653">
        <ele>831</ele>
        <time>2019-06-25T16:23:13Z</time>
      </trkpt>
      <trkpt lat="45.03109" lon="3.10634">
        <ele>826</ele>
        <time>2019-06-25T16:23:24Z</time>
      </trkpt>
      <trkpt lat="45.03119" lon="3.10617">
        <ele>824</ele>
        <time>2019-06-25T16:23:32Z</time>
      </trkpt>
      <trkpt lat="45.0313" lon="3.10606">
        <ele>821</ele>
        <time>2019-06-25T16:23:38Z</time>
      </trkpt>
      <trkpt lat="45.03166" lon="3.10533">
        <ele>810</ele>
        <time>2019-06-25T16:24:10Z</time>
      </trkpt>
      <trkpt lat="45.0317" lon="3.10513">
        <ele>808</ele>
        <time>2019-06-25T16:24:17Z</time>
      </trkpt>
      <trkpt lat="45.03168" lon="3.10486">
        <ele>807</ele>
        <time>2019-06-25T16:24:27Z</time>
      </trkpt>
      <trkpt lat="45.03161" lon="3.1045">
        <ele>806</ele>
        <time>2019-06-25T16:24:40Z</time>
      </trkpt>
      <trkpt lat="45.03157" lon="3.1039">
        <ele>802</ele>
        <time>2019-06-25T16:25:01Z</time>
      </trkpt>
      <trkpt lat="45.03173" lon="3.10319">
        <ele>789</ele>
        <time>2019-06-25T16:25:28Z</time>
      </trkpt>
      <trkpt lat="45.03183" lon="3.10243">
        <ele>786</ele>
        <time>2019-06-25T16:25:55Z</time>
      </trkpt>
      <trkpt lat="45.03189" lon="3.10222">
        <ele>786</ele>
        <time>2019-06-25T16:26:03Z</time>
      </trkpt>
      <trkpt lat="45.03202" lon="3.10202">
        <ele>785</ele>
        <time>2019-06-25T16:26:13Z</time>
      </trkpt>
      <trkpt lat="45.03219" lon="3.10154">
        <ele>783</ele>
        <time>2019-06-25T16:26:32Z</time>
      </trkpt>
      <trkpt lat="45.03231" lon="3.10104">
        <ele>781</ele>
        <time>2019-06-25T16:26:50Z</time>
      </trkpt>
      <trkpt lat="45.03237" lon="3.10088">
        <ele>780</ele>
        <time>2019-06-25T16:26:57Z</time>
      </trkpt>
      <trkpt lat="45.03244" lon="3.10089">
        <ele>778</ele>
        <time>2019-06-25T16:27:00Z</time>
      </trkpt>
      <trkpt lat="45.03254" lon="3.10098">
        <ele>776</ele>
        <time>2019-06-25T16:27:06Z</time>
      </trkpt>
      <trkpt lat="45.03258" lon="3.10109">
        <ele>776</ele>
        <time>2019-06-25T16:27:11Z</time>
      </trkpt>
      <trkpt lat="45.03247" lon="3.10163">
        <ele>776</ele>
        <time>2019-06-25T16:27:30Z</time>
      </trkpt>
      <trkpt lat="45.03243" lon="3.10198">
        <ele>776</ele>
        <time>2019-06-25T16:27:43Z</time>
      </trkpt>
      <trkpt lat="45.03251" lon="3.10226">
        <ele>773</ele>
        <time>2019-06-25T16:27:54Z</time>
      </trkpt>
      <trkpt lat="45.03257" lon="3.10237">
        <ele>773</ele>
        <time>2019-06-25T16:27:59Z</time>
      </trkpt>
      <trkpt lat="45.03263" lon="3.10232">
        <ele>773</ele>
        <time>2019-06-25T16:28:02Z</time>
      </trkpt>
      <trkpt lat="45.03278" lon="3.10151">
        <ele>775</ele>
        <time>2019-06-25T16:28:32Z</time>
      </trkpt>
      <trkpt lat="45.03305" lon="3.10047">
        <ele>776</ele>
        <time>2019-06-25T16:29:11Z</time>
      </trkpt>
      <trkpt lat="45.03341" lon="3.09959">
        <ele>777</ele>
        <time>2019-06-25T16:29:47Z</time>
      </trkpt>
      <trkpt lat="45.03346" lon="3.0994">
        <ele>777</ele>
        <time>2019-06-25T16:29:54Z</time>
      </trkpt>
      <trkpt lat="45.03353" lon="3.09927">
        <ele>777</ele>
        <time>2019-06-25T16:30:00Z</time>
      </trkpt>
      <trkpt lat="45.03349" lon="3.09923">
        <ele>778</ele>
        <time>2019-06-25T16:30:02Z</time>
      </trkpt>
      <trkpt lat="45.03353" lon="3.09922">
        <ele>777</ele>
        <time>2019-06-25T16:30:04Z</time>
      </trkpt>
      <trkpt lat="45.03374" lon="3.09896">
        <ele>779</ele>
        <time>2019-06-25T16:30:18Z</time>
      </trkpt>
      <trkpt lat="45.03393" lon="3.09877">
        <ele>779</ele>
        <time>2019-06-25T16:30:30Z</time>
      </trkpt>
      <trkpt lat="45.03401" lon="3.09878">
        <ele>778</ele>
        <time>2019-06-25T16:30:34Z</time>
      </trkpt>
      <trkpt lat="45.03408" lon="3.09889">
        <ele>777</ele>
        <time>2019-06-25T16:30:39Z</time>
      </trkpt>
      <trkpt lat="45.03403" lon="3.09915">
        <ele>776</ele>
        <time>2019-06-25T16:30:49Z</time>
      </trkpt>
      <trkpt lat="45.03379" lon="3.09954">
        <ele>777</ele>
        <time>2019-06-25T16:31:07Z</time>
      </trkpt>
      <trkpt lat="45.03357" lon="3.09981">
        <ele>777</ele>
        <time>2019-06-25T16:31:21Z</time>
      </trkpt>
      <trkpt lat="45.03352" lon="3.09995">
        <ele>777</ele>
        <time>2019-06-25T16:31:27Z</time>
      </trkpt>
      <trkpt lat="45.03346" lon="3.09994">
        <ele>777</ele>
        <time>2019-06-25T16:31:30Z</time>
      </trkpt>
      <trkpt lat="45.03335" lon="3.09972">
        <ele>777</ele>
        <time>2019-06-25T16:31:40Z</time>
      </trkpt>
      <trkpt lat="45.033" lon="3.09916">
        <ele>779</ele>
        <time>2019-06-25T16:32:06Z</time>
      </trkpt>
      <trkpt lat="45.03289" lon="3.09902">
        <ele>781</ele>
        <time>2019-06-25T16:32:13Z</time>
      </trkpt>
      <trkpt lat="45.03286" lon="3.09888">
        <ele>782</ele>
        <time>2019-06-25T16:32:19Z</time>
      </trkpt>
      <trkpt lat="45.03277" lon="3.09876">
        <ele>784</ele>
        <time>2019-06-25T16:32:25Z</time>
      </trkpt>
      <trkpt lat="45.03272" lon="3.09862">
        <ele>785</ele>
        <time>2019-06-25T16:32:30Z</time>
      </trkpt>
      <trkpt lat="45.03277" lon="3.09856">
        <ele>786</ele>
        <time>2019-06-25T16:32:34Z</time>
      </trkpt>
      <trkpt lat="45.0328" lon="3.09847">
        <ele>787</ele>
        <time>2019-06-25T16:32:37Z</time>
      </trkpt>
      <trkpt lat="45.03284" lon="3.09845">
        <ele>787</ele>
        <time>2019-06-25T16:32:39Z</time>
      </trkpt>
      <trkpt lat="45.03292" lon="3.09846">
        <ele>787</ele>
        <time>2019-06-25T16:32:43Z</time>
      </trkpt>
      <trkpt lat="45.03294" lon="3.09838">
        <ele>787</ele>
        <time>2019-06-25T16:32:46Z</time>
      </trkpt>
      <trkpt lat="45.03291" lon="3.09822">
        <ele>791</ele>
        <time>2019-06-25T16:32:52Z</time>
      </trkpt>
      <trkpt lat="45.033" lon="3.09806">
        <ele>794</ele>
        <time>2019-06-25T16:32:59Z</time>
      </trkpt>
      <trkpt lat="45.03303" lon="3.09772">
        <ele>803</ele>
        <time>2019-06-25T16:33:11Z</time>
      </trkpt>
      <trkpt lat="45.03327" lon="3.09751">
        <ele>809</ele>
        <time>2019-06-25T16:33:26Z</time>
      </trkpt>
      <trkpt lat="45.0333" lon="3.09743">
        <ele>812</ele>
        <time>2019-06-25T16:33:29Z</time>
      </trkpt>
      <trkpt lat="45.03327" lon="3.0975">
        <ele>810</ele>
        <time>2019-06-25T16:33:32Z</time>
      </trkpt>
      <trkpt lat="45.03325" lon="3.09739">
        <ele>813</ele>
        <time>2019-06-25T16:33:36Z</time>
      </trkpt>
      <trkpt lat="45.03325" lon="3.09747">
        <ele>810</ele>
        <time>2019-06-25T16:33:39Z</time>
      </trkpt>
      <trkpt lat="45.03327" lon="3.0974">
        <ele>813</ele>
        <time>2019-06-25T16:33:41Z</time>
      </trkpt>
      <trkpt lat="45.0333" lon="3.09745">
        <ele>812</ele>
        <time>2019-06-25T16:33:44Z</time>
      </trkpt>
      <trkpt lat="45.03328" lon="3.09746">
        <ele>811</ele>
        <time>2019-06-25T16:33:45Z</time>
      </trkpt>
      <trkpt lat="45.0332" lon="3.09728">
        <ele>817</ele>
        <time>2019-06-25T16:33:52Z</time>
      </trkpt>
      <trkpt lat="45.03312" lon="3.09719">
        <ele>819</ele>
        <time>2019-06-25T16:33:57Z</time>
      </trkpt>
      <trkpt lat="45.03301" lon="3.0969">
        <ele>827</ele>
        <time>2019-06-25T16:34:09Z</time>
      </trkpt>
      <trkpt lat="45.03293" lon="3.09679">
        <ele>829</ele>
        <time>2019-06-25T16:34:14Z</time>
      </trkpt>
      <trkpt lat="45.03291" lon="3.09666">
        <ele>833</ele>
        <time>2019-06-25T16:34:19Z</time>
      </trkpt>
      <trkpt lat="45.03287" lon="3.09662">
        <ele>833</ele>
        <time>2019-06-25T16:34:22Z</time>
      </trkpt>
      <trkpt lat="45.03287" lon="3.09654">
        <ele>836</ele>
        <time>2019-06-25T16:34:24Z</time>
      </trkpt>
      <trkpt lat="45.03281" lon="3.09646">
        <ele>838</ele>
        <time>2019-06-25T16:34:29Z</time>
      </trkpt>
      <trkpt lat="45.0327" lon="3.09583">
        <ele>855</ele>
        <time>2019-06-25T16:34:51Z</time>
      </trkpt>
      <trkpt lat="45.03265" lon="3.09577">
        <ele>854</ele>
        <time>2019-06-25T16:34:55Z</time>
      </trkpt>
      <trkpt lat="45.0326" lon="3.09554">
        <ele>856</ele>
        <time>2019-06-25T16:35:03Z</time>
      </trkpt>
      <trkpt lat="45.03261" lon="3.09516">
        <ele>862</ele>
        <time>2019-06-25T16:35:17Z</time>
      </trkpt>
      <trkpt lat="45.03267" lon="3.09519">
        <ele>863</ele>
        <time>2019-06-25T16:35:20Z</time>
      </trkpt>
      <trkpt lat="45.0328" lon="3.09539">
        <ele>865</ele>
        <time>2019-06-25T16:35:30Z</time>
      </trkpt>
      <trkpt lat="45.03293" lon="3.09546">
        <ele>868</ele>
        <time>2019-06-25T16:35:36Z</time>
      </trkpt>
      <trkpt lat="45.03304" lon="3.09566">
        <ele>870</ele>
        <time>2019-06-25T16:35:45Z</time>
      </trkpt>
      <trkpt lat="45.03319" lon="3.09606">
        <ele>864</ele>
        <time>2019-06-25T16:36:01Z</time>
      </trkpt>
      <trkpt lat="45.03332" lon="3.09603">
        <ele>870</ele>
        <time>2019-06-25T16:36:08Z</time>
      </trkpt>
      <trkpt lat="45.03342" lon="3.09611">
        <ele>864</ele>
        <time>2019-06-25T16:36:14Z</time>
      </trkpt>
      <trkpt lat="45.03341" lon="3.09614">
        <ele>863</ele>
        <time>2019-06-25T16:36:15Z</time>
      </trkpt>
      <trkpt lat="45.03344" lon="3.09617">
        <ele>861</ele>
        <time>2019-06-25T16:36:17Z</time>
      </trkpt>
      <trkpt lat="45.03349" lon="3.09613">
        <ele>861</ele>
        <time>2019-06-25T16:36:20Z</time>
      </trkpt>
      <trkpt lat="45.03355" lon="3.09585">
        <ele>873</ele>
        <time>2019-06-25T16:36:30Z</time>
      </trkpt>
      <trkpt lat="45.03361" lon="3.09572">
        <ele>874</ele>
        <time>2019-06-25T16:36:36Z</time>
      </trkpt>
      <trkpt lat="45.03361" lon="3.0956">
        <ele>876</ele>
        <time>2019-06-25T16:36:40Z</time>
      </trkpt>
      <trkpt lat="45.03349" lon="3.09516">
        <ele>883</ele>
        <time>2019-06-25T16:36:56Z</time>
      </trkpt>
      <trkpt lat="45.03348" lon="3.09505">
        <ele>885</ele>
        <time>2019-06-25T16:37:00Z</time>
      </trkpt>
    </trkseg>
  </trk>
</gpx>